sensor_id;sensor_type;location;lat;lon;timestamp;temperature;humidity
5723;DHT22;2886;49.722;8.612;2023-03-23T00:01:12;14.80;73.20
5723;DHT22;2886;49.722;8.612;2023-03-23T00:03:47;14.80;73.40
5723;DHT22;2886;49.722;8.612;2023-03-23T00:06:13;14.80;73.80
5723;DHT22;2886;49.722;8.612;2023-03-23T00:08:44;14.70;73.80
5723;DHT22;2886;49.722;8.612;2023-03-23T00:11:20;14.70;74.10
5723;DHT22;2886;49.722;8.612;2023-03-23T00:13:47;14.70;74.20
5723;DHT22;2886;49.722;8.612;2023-03-23T00:16:19;14.70;74.40
5723;DHT22;2886;49.722;8.612;2023-03-23T00:18:50;14.70;74.10
5723;DHT22;2886;49.722;8.612;2023-03-23T00:21:18;14.70;74.30
5723;DHT22;2886;49.722;8.612;2023-03-23T00:23:44;14.70;74.30
5723;DHT22;2886;49.722;8.612;2023-03-23T00:26:11;14.70;74.20
5723;DHT22;2886;49.722;8.612;2023-03-23T00:28:36;14.70;73.80
5723;DHT22;2886;49.722;8.612;2023-03-23T00:31:06;14.80;73.30
5723;DHT22;2886;49.722;8.612;2023-03-23T00:33:37;14.80;73.90
5723;DHT22;2886;49.722;8.612;2023-03-23T00:36:07;14.80;73.30
5723;DHT22;2886;49.722;8.612;2023-03-23T00:38:34;14.80;73.10
5723;DHT22;2886;49.722;8.612;2023-03-23T00:41:00;14.80;72.40
5723;DHT22;2886;49.722;8.612;2023-03-23T00:43:29;14.90;72.50
5723;DHT22;2886;49.722;8.612;2023-03-23T00:45:55;14.90;72.40
5723;DHT22;2886;49.722;8.612;2023-03-23T00:48:23;14.90;72.10
5723;DHT22;2886;49.722;8.612;2023-03-23T00:50:49;14.90;72.20
5723;DHT22;2886;49.722;8.612;2023-03-23T00:53:15;14.90;72.30
5723;DHT22;2886;49.722;8.612;2023-03-23T00:55:42;14.90;72.60
5723;DHT22;2886;49.722;8.612;2023-03-23T00:58:09;14.80;73.00
5723;DHT22;2886;49.722;8.612;2023-03-23T01:00:35;14.80;73.60
5723;DHT22;2886;49.722;8.612;2023-03-23T01:03:01;14.70;73.10
5723;DHT22;2886;49.722;8.612;2023-03-23T01:05:26;14.70;73.40
5723;DHT22;2886;49.722;8.612;2023-03-23T01:07:58;14.70;73.30
5723;DHT22;2886;49.722;8.612;2023-03-23T01:10:24;14.70;72.70
5723;DHT22;2886;49.722;8.612;2023-03-23T01:12:52;14.70;72.50
5723;DHT22;2886;49.722;8.612;2023-03-23T01:15:21;14.70;72.90
5723;DHT22;2886;49.722;8.612;2023-03-23T01:17:47;14.70;72.70
5723;DHT22;2886;49.722;8.612;2023-03-23T01:20:14;14.70;72.60
5723;DHT22;2886;49.722;8.612;2023-03-23T01:22:41;14.70;72.90
5723;DHT22;2886;49.722;8.612;2023-03-23T01:25:09;14.60;72.50
5723;DHT22;2886;49.722;8.612;2023-03-23T01:27:36;14.70;72.50
5723;DHT22;2886;49.722;8.612;2023-03-23T01:30:02;14.70;72.50
5723;DHT22;2886;49.722;8.612;2023-03-23T01:32:28;14.70;72.50
5723;DHT22;2886;49.722;8.612;2023-03-23T01:34:54;14.70;72.70
5723;DHT22;2886;49.722;8.612;2023-03-23T01:37:20;14.60;73.00
5723;DHT22;2886;49.722;8.612;2023-03-23T01:39:52;14.60;72.60
5723;DHT22;2886;49.722;8.612;2023-03-23T01:42:20;14.60;72.40
5723;DHT22;2886;49.722;8.612;2023-03-23T01:47:11;14.60;72.30
5723;DHT22;2886;49.722;8.612;2023-03-23T01:49:41;14.60;72.40
5723;DHT22;2886;49.722;8.612;2023-03-23T01:52:16;14.60;72.60
5723;DHT22;2886;49.722;8.612;2023-03-23T01:54:48;14.60;72.80
5723;DHT22;2886;49.722;8.612;2023-03-23T01:57:16;14.60;72.80
5723;DHT22;2886;49.722;8.612;2023-03-23T01:59:45;14.60;72.60
5723;DHT22;2886;49.722;8.612;2023-03-23T02:02:14;14.60;72.80
5723;DHT22;2886;49.722;8.612;2023-03-23T02:04:41;14.60;72.80
5723;DHT22;2886;49.722;8.612;2023-03-23T02:07:07;14.60;73.10
5723;DHT22;2886;49.722;8.612;2023-03-23T02:09:33;14.50;73.10
5723;DHT22;2886;49.722;8.612;2023-03-23T02:11:59;14.50;73.00
5723;DHT22;2886;49.722;8.612;2023-03-23T02:14:26;14.50;73.10
5723;DHT22;2886;49.722;8.612;2023-03-23T02:25:48;14.50;73.30
5723;DHT22;2886;49.722;8.612;2023-03-23T02:28:32;14.50;73.30
5723;DHT22;2886;49.722;8.612;2023-03-23T02:34:00;14.50;73.70
5723;DHT22;2886;49.722;8.612;2023-03-23T02:36:40;14.50;73.90
5723;DHT22;2886;49.722;8.612;2023-03-23T02:39:21;14.40;74.00
5723;DHT22;2886;49.722;8.612;2023-03-23T02:41:53;14.40;74.50
5723;DHT22;2886;49.722;8.612;2023-03-23T02:44:22;14.40;74.10
5723;DHT22;2886;49.722;8.612;2023-03-23T02:46:49;14.40;75.10
5723;DHT22;2886;49.722;8.612;2023-03-23T02:49:16;14.40;74.60
5723;DHT22;2886;49.722;8.612;2023-03-23T02:51:45;14.40;74.20
5723;DHT22;2886;49.722;8.612;2023-03-23T02:54:13;14.40;74.40
5723;DHT22;2886;49.722;8.612;2023-03-23T02:56:40;14.40;74.20
5723;DHT22;2886;49.722;8.612;2023-03-23T02:59:06;14.40;74.30
5723;DHT22;2886;49.722;8.612;2023-03-23T03:04:01;14.40;74.00
5723;DHT22;2886;49.722;8.612;2023-03-23T03:09:20;14.40;73.80
5723;DHT22;2886;49.722;8.612;2023-03-23T03:11:50;14.40;74.20
5723;DHT22;2886;49.722;8.612;2023-03-23T03:14:29;14.40;78.00
5723;DHT22;2886;49.722;8.612;2023-03-23T03:17:21;14.40;78.00
5723;DHT22;2886;49.722;8.612;2023-03-23T03:19:49;14.40;77.70
5723;DHT22;2886;49.722;8.612;2023-03-23T03:22:17;14.40;77.20
5723;DHT22;2886;49.722;8.612;2023-03-23T03:24:47;14.40;77.20
5723;DHT22;2886;49.722;8.612;2023-03-23T03:27:16;14.30;76.10
5723;DHT22;2886;49.722;8.612;2023-03-23T03:29:45;14.30;76.80
5723;DHT22;2886;49.722;8.612;2023-03-23T03:32:17;14.30;76.10
5723;DHT22;2886;49.722;8.612;2023-03-23T03:34:45;14.40;75.40
5723;DHT22;2886;49.722;8.612;2023-03-23T03:37:13;14.30;75.50
5723;DHT22;2886;49.722;8.612;2023-03-23T03:39:40;14.40;75.00
5723;DHT22;2886;49.722;8.612;2023-03-23T03:42:06;14.40;74.40
5723;DHT22;2886;49.722;8.612;2023-03-23T03:44:33;14.40;75.00
5723;DHT22;2886;49.722;8.612;2023-03-23T03:46:59;14.40;74.30
5723;DHT22;2886;49.722;8.612;2023-03-23T03:49:25;14.40;74.90
5723;DHT22;2886;49.722;8.612;2023-03-23T03:51:51;14.40;75.30
5723;DHT22;2886;49.722;8.612;2023-03-23T03:54:17;14.40;74.30
5723;DHT22;2886;49.722;8.612;2023-03-23T03:56:43;14.40;74.10
5723;DHT22;2886;49.722;8.612;2023-03-23T03:59:09;14.40;73.90
5723;DHT22;2886;49.722;8.612;2023-03-23T04:01:36;14.40;74.20
5723;DHT22;2886;49.722;8.612;2023-03-23T04:04:03;14.50;74.30
5723;DHT22;2886;49.722;8.612;2023-03-23T04:06:30;14.50;74.40
5723;DHT22;2886;49.722;8.612;2023-03-23T04:08:56;14.50;74.30
5723;DHT22;2886;49.722;8.612;2023-03-23T04:11:25;14.50;75.00
5723;DHT22;2886;49.722;8.612;2023-03-23T04:13:51;14.50;75.00
5723;DHT22;2886;49.722;8.612;2023-03-23T04:16:17;14.40;75.20
5723;DHT22;2886;49.722;8.612;2023-03-23T04:18:43;14.40;75.40
5723;DHT22;2886;49.722;8.612;2023-03-23T04:21:09;14.40;75.50
5723;DHT22;2886;49.722;8.612;2023-03-23T04:23:37;14.40;76.00
5723;DHT22;2886;49.722;8.612;2023-03-23T04:26:04;14.40;76.10
5723;DHT22;2886;49.722;8.612;2023-03-23T04:28:29;14.40;77.40
5723;DHT22;2886;49.722;8.612;2023-03-23T04:30:59;14.30;79.00
5723;DHT22;2886;49.722;8.612;2023-03-23T04:33:27;14.30;80.50
5723;DHT22;2886;49.722;8.612;2023-03-23T04:35:54;14.30;81.10
5723;DHT22;2886;49.722;8.612;2023-03-23T04:38:23;14.30;81.90
5723;DHT22;2886;49.722;8.612;2023-03-23T04:40:51;14.30;81.10
5723;DHT22;2886;49.722;8.612;2023-03-23T04:43:21;14.30;81.50
5723;DHT22;2886;49.722;8.612;2023-03-23T04:45:54;14.30;81.00
5723;DHT22;2886;49.722;8.612;2023-03-23T04:48:28;14.30;81.60
5723;DHT22;2886;49.722;8.612;2023-03-23T04:50:55;14.20;82.40
5723;DHT22;2886;49.722;8.612;2023-03-23T04:53:21;14.20;81.90
5723;DHT22;2886;49.722;8.612;2023-03-23T04:55:47;14.20;81.10
5723;DHT22;2886;49.722;8.612;2023-03-23T04:58:15;14.20;81.20
5723;DHT22;2886;49.722;8.612;2023-03-23T05:00:41;14.20;81.80
5723;DHT22;2886;49.722;8.612;2023-03-23T05:03:11;14.20;82.30
5723;DHT22;2886;49.722;8.612;2023-03-23T05:05:42;14.20;82.40
5723;DHT22;2886;49.722;8.612;2023-03-23T05:08:07;14.20;82.90
5723;DHT22;2886;49.722;8.612;2023-03-23T05:10:33;14.20;83.20
5723;DHT22;2886;49.722;8.612;2023-03-23T05:12:59;14.20;82.70
5723;DHT22;2886;49.722;8.612;2023-03-23T05:15:24;14.20;82.30
5723;DHT22;2886;49.722;8.612;2023-03-23T05:17:53;14.20;82.60
5723;DHT22;2886;49.722;8.612;2023-03-23T05:20:20;14.20;82.60
5723;DHT22;2886;49.722;8.612;2023-03-23T05:22:47;14.20;82.60
5723;DHT22;2886;49.722;8.612;2023-03-23T05:25:17;14.30;82.90
5723;DHT22;2886;49.722;8.612;2023-03-23T05:27:48;14.20;82.80
5723;DHT22;2886;49.722;8.612;2023-03-23T05:30:21;14.30;83.00
5723;DHT22;2886;49.722;8.612;2023-03-23T05:32:48;14.30;83.70
5723;DHT22;2886;49.722;8.612;2023-03-23T05:35:18;14.30;84.70
5723;DHT22;2886;49.722;8.612;2023-03-23T05:37:44;14.30;85.30
5723;DHT22;2886;49.722;8.612;2023-03-23T05:40:11;14.40;86.30
5723;DHT22;2886;49.722;8.612;2023-03-23T05:42:38;14.40;87.20
5723;DHT22;2886;49.722;8.612;2023-03-23T05:45:08;14.40;87.40
5723;DHT22;2886;49.722;8.612;2023-03-23T05:47:34;14.40;87.90
5723;DHT22;2886;49.722;8.612;2023-03-23T05:50:00;14.40;89.00
5723;DHT22;2886;49.722;8.612;2023-03-23T05:52:26;14.40;90.10
5723;DHT22;2886;49.722;8.612;2023-03-23T05:54:53;14.30;91.00
5723;DHT22;2886;49.722;8.612;2023-03-23T05:57:19;14.30;91.40
5723;DHT22;2886;49.722;8.612;2023-03-23T05:59:47;14.30;91.90
5723;DHT22;2886;49.722;8.612;2023-03-23T06:02:13;14.20;92.20
5723;DHT22;2886;49.722;8.612;2023-03-23T06:04:40;14.20;92.50
5723;DHT22;2886;49.722;8.612;2023-03-23T06:07:06;14.20;92.80
5723;DHT22;2886;49.722;8.612;2023-03-23T06:09:32;14.10;93.10
5723;DHT22;2886;49.722;8.612;2023-03-23T06:11:58;14.10;93.20
5723;DHT22;2886;49.722;8.612;2023-03-23T06:14:24;14.10;93.40
5723;DHT22;2886;49.722;8.612;2023-03-23T06:16:49;14.10;93.50
5723;DHT22;2886;49.722;8.612;2023-03-23T06:19:16;14.10;93.60
5723;DHT22;2886;49.722;8.612;2023-03-23T06:21:42;14.10;93.80
5723;DHT22;2886;49.722;8.612;2023-03-23T06:24:08;14.00;94.30
5723;DHT22;2886;49.722;8.612;2023-03-23T06:26:36;14.00;94.20
5723;DHT22;2886;49.722;8.612;2023-03-23T06:29:03;14.00;94.50
5723;DHT22;2886;49.722;8.612;2023-03-23T06:31:37;14.00;94.80
5723;DHT22;2886;49.722;8.612;2023-03-23T06:34:04;14.00;95.00
5723;DHT22;2886;49.722;8.612;2023-03-23T06:36:29;14.00;95.20
5723;DHT22;2886;49.722;8.612;2023-03-23T06:38:56;14.00;95.30
5723;DHT22;2886;49.722;8.612;2023-03-23T06:41:21;14.00;95.20
5723;DHT22;2886;49.722;8.612;2023-03-23T06:43:47;14.00;95.40
5723;DHT22;2886;49.722;8.612;2023-03-23T06:46:13;14.00;95.40
5723;DHT22;2886;49.722;8.612;2023-03-23T06:48:38;14.00;95.60
5723;DHT22;2886;49.722;8.612;2023-03-23T06:51:04;14.00;95.60
5723;DHT22;2886;49.722;8.612;2023-03-23T06:53:31;14.10;95.70
5723;DHT22;2886;49.722;8.612;2023-03-23T06:55:56;14.00;96.00
5723;DHT22;2886;49.722;8.612;2023-03-23T06:58:22;14.00;96.20
5723;DHT22;2886;49.722;8.612;2023-03-23T07:00:52;14.00;96.20
5723;DHT22;2886;49.722;8.612;2023-03-23T07:03:18;14.00;96.50
5723;DHT22;2886;49.722;8.612;2023-03-23T07:05:46;14.00;96.90
5723;DHT22;2886;49.722;8.612;2023-03-23T07:08:12;14.00;96.10
5723;DHT22;2886;49.722;8.612;2023-03-23T07:10:38;14.00;96.20
5723;DHT22;2886;49.722;8.612;2023-03-23T07:13:04;14.00;96.20
5723;DHT22;2886;49.722;8.612;2023-03-23T07:15:29;14.00;96.30
5723;DHT22;2886;49.722;8.612;2023-03-23T07:17:56;14.00;96.00
5723;DHT22;2886;49.722;8.612;2023-03-23T07:20:21;14.00;96.00
5723;DHT22;2886;49.722;8.612;2023-03-23T07:22:48;14.00;96.00
5723;DHT22;2886;49.722;8.612;2023-03-23T07:25:15;14.10;95.90
5723;DHT22;2886;49.722;8.612;2023-03-23T07:27:41;14.10;95.80
5723;DHT22;2886;49.722;8.612;2023-03-23T07:30:07;14.10;95.50
5723;DHT22;2886;49.722;8.612;2023-03-23T07:32:33;14.10;95.60
5723;DHT22;2886;49.722;8.612;2023-03-23T07:34:59;14.10;95.60
5723;DHT22;2886;49.722;8.612;2023-03-23T07:37:25;14.10;95.90
5723;DHT22;2886;49.722;8.612;2023-03-23T07:39:51;14.10;96.10
5723;DHT22;2886;49.722;8.612;2023-03-23T07:42:17;14.10;96.00
5723;DHT22;2886;49.722;8.612;2023-03-23T07:44:42;14.00;96.20
5723;DHT22;2886;49.722;8.612;2023-03-23T07:47:08;14.00;96.30
5723;DHT22;2886;49.722;8.612;2023-03-23T07:49:34;14.00;96.40
5723;DHT22;2886;49.722;8.612;2023-03-23T07:51:59;14.00;96.50
5723;DHT22;2886;49.722;8.612;2023-03-23T07:54:27;14.00;96.50
5723;DHT22;2886;49.722;8.612;2023-03-23T07:56:52;14.00;96.70
5723;DHT22;2886;49.722;8.612;2023-03-23T07:59:18;14.00;96.40
5723;DHT22;2886;49.722;8.612;2023-03-23T08:01:43;14.00;96.50
5723;DHT22;2886;49.722;8.612;2023-03-23T08:04:09;14.00;96.60
5723;DHT22;2886;49.722;8.612;2023-03-23T08:06:35;14.00;96.70
5723;DHT22;2886;49.722;8.612;2023-03-23T08:09:02;14.00;96.60
5723;DHT22;2886;49.722;8.612;2023-03-23T08:11:34;14.00;96.80
5723;DHT22;2886;49.722;8.612;2023-03-23T08:14:00;14.10;97.00
5723;DHT22;2886;49.722;8.612;2023-03-23T08:16:26;14.10;97.20
5723;DHT22;2886;49.722;8.612;2023-03-23T08:18:55;14.10;97.10
5723;DHT22;2886;49.722;8.612;2023-03-23T08:21:20;14.10;97.20
5723;DHT22;2886;49.722;8.612;2023-03-23T08:23:47;14.10;97.30
5723;DHT22;2886;49.722;8.612;2023-03-23T08:26:13;14.10;97.20
5723;DHT22;2886;49.722;8.612;2023-03-23T08:28:40;14.10;97.20
5723;DHT22;2886;49.722;8.612;2023-03-23T08:31:09;14.10;97.40
5723;DHT22;2886;49.722;8.612;2023-03-23T08:33:39;14.10;97.50
5723;DHT22;2886;49.722;8.612;2023-03-23T08:36:06;14.10;97.50
5723;DHT22;2886;49.722;8.612;2023-03-23T08:38:33;14.10;97.60
5723;DHT22;2886;49.722;8.612;2023-03-23T08:41:00;14.00;97.70
5723;DHT22;2886;49.722;8.612;2023-03-23T08:43:26;14.00;98.00
5723;DHT22;2886;49.722;8.612;2023-03-23T08:45:53;14.00;98.50
5723;DHT22;2886;49.722;8.612;2023-03-23T08:48:20;14.00;98.10
5723;DHT22;2886;49.722;8.612;2023-03-23T08:50:46;14.10;98.20
5723;DHT22;2886;49.722;8.612;2023-03-23T08:53:12;14.10;98.40
5723;DHT22;2886;49.722;8.612;2023-03-23T08:55:38;14.00;98.50
5723;DHT22;2886;49.722;8.612;2023-03-23T08:58:05;14.10;98.60
5723;DHT22;2886;49.722;8.612;2023-03-23T09:00:31;14.00;98.80
5723;DHT22;2886;49.722;8.612;2023-03-23T09:02:58;14.00;98.90
5723;DHT22;2886;49.722;8.612;2023-03-23T09:05:26;14.00;99.00
5723;DHT22;2886;49.722;8.612;2023-03-23T09:07:55;14.10;99.10
5723;DHT22;2886;49.722;8.612;2023-03-23T09:10:22;14.10;98.80
5723;DHT22;2886;49.722;8.612;2023-03-23T09:12:48;14.10;98.70
5723;DHT22;2886;49.722;8.612;2023-03-23T09:15:16;14.10;98.70
5723;DHT22;2886;49.722;8.612;2023-03-23T09:17:44;14.10;98.60
5723;DHT22;2886;49.722;8.612;2023-03-23T09:20:12;14.10;98.40
5723;DHT22;2886;49.722;8.612;2023-03-23T09:22:43;14.20;98.10
5723;DHT22;2886;49.722;8.612;2023-03-23T09:25:11;14.20;98.20
5723;DHT22;2886;49.722;8.612;2023-03-23T09:27:38;14.30;97.70
5723;DHT22;2886;49.722;8.612;2023-03-23T09:30:10;14.30;96.80
5723;DHT22;2886;49.722;8.612;2023-03-23T09:32:37;14.40;97.00
5723;DHT22;2886;49.722;8.612;2023-03-23T09:35:06;14.30;95.90
5723;DHT22;2886;49.722;8.612;2023-03-23T09:37:38;14.30;95.90
5723;DHT22;2886;49.722;8.612;2023-03-23T09:40:06;14.50;95.60
5723;DHT22;2886;49.722;8.612;2023-03-23T09:48:03;14.90;94.40
5723;DHT22;2886;49.722;8.612;2023-03-23T09:50:32;15.10;93.80
5723;DHT22;2886;49.722;8.612;2023-03-23T09:53:15;15.20;93.80
5723;DHT22;2886;49.722;8.612;2023-03-23T09:55:42;15.20;93.70
5723;DHT22;2886;49.722;8.612;2023-03-23T09:58:35;15.20;93.10
5723;DHT22;2886;49.722;8.612;2023-03-23T10:01:07;15.20;92.90
5723;DHT22;2886;49.722;8.612;2023-03-23T10:03:40;15.20;93.00
5723;DHT22;2886;49.722;8.612;2023-03-23T10:06:12;15.30;92.90
5723;DHT22;2886;49.722;8.612;2023-03-23T10:08:44;15.60;92.10
5723;DHT22;2886;49.722;8.612;2023-03-23T10:14:44;16.20;90.30
5723;DHT22;2886;49.722;8.612;2023-03-23T10:17:28;16.10;90.20
5723;DHT22;2886;49.722;8.612;2023-03-23T10:23:48;15.90;90.50
5723;DHT22;2886;49.722;8.612;2023-03-23T10:26:12;16.10;90.20
5723;DHT22;2886;49.722;8.612;2023-03-23T10:28:43;16.10;90.10
5723;DHT22;2886;49.722;8.612;2023-03-23T10:31:14;16.20;89.10
5723;DHT22;2886;49.722;8.612;2023-03-23T10:34:08;16.20;90.00
5723;DHT22;2886;49.722;8.612;2023-03-23T10:36:39;16.30;89.70
5723;DHT22;2886;49.722;8.612;2023-03-23T10:39:13;16.30;90.60
5723;DHT22;2886;49.722;8.612;2023-03-23T10:41:39;16.40;91.30
5723;DHT22;2886;49.722;8.612;2023-03-23T10:44:32;16.40;91.30
5723;DHT22;2886;49.722;8.612;2023-03-23T10:47:04;16.30;91.70
5723;DHT22;2886;49.722;8.612;2023-03-23T10:49:39;16.20;93.30
5723;DHT22;2886;49.722;8.612;2023-03-23T10:52:41;16.20;93.30
5723;DHT22;2886;49.722;8.612;2023-03-23T10:55:12;16.10;94.20
5723;DHT22;2886;49.722;8.612;2023-03-23T10:57:41;16.10;93.80
5723;DHT22;2886;49.722;8.612;2023-03-23T11:00:20;15.90;93.60
5723;DHT22;2886;49.722;8.612;2023-03-23T11:03:18;15.80;93.80
5723;DHT22;2886;49.722;8.612;2023-03-23T11:06:05;15.70;93.90
5723;DHT22;2886;49.722;8.612;2023-03-23T11:08:35;15.60;93.70
5723;DHT22;2886;49.722;8.612;2023-03-23T11:11:11;15.60;93.90
5723;DHT22;2886;49.722;8.612;2023-03-23T11:13:42;15.50;93.80
5723;DHT22;2886;49.722;8.612;2023-03-23T11:16:27;15.40;93.80
5723;DHT22;2886;49.722;8.612;2023-03-23T11:18:53;15.40;93.30
5723;DHT22;2886;49.722;8.612;2023-03-23T11:21:21;15.50;92.90
5723;DHT22;2886;49.722;8.612;2023-03-23T11:23:51;15.50;92.90
5723;DHT22;2886;49.722;8.612;2023-03-23T11:26:44;15.40;92.90
5723;DHT22;2886;49.722;8.612;2023-03-23T11:29:17;15.30;93.50
5723;DHT22;2886;49.722;8.612;2023-03-23T11:32:02;15.30;94.00
5723;DHT22;2886;49.722;8.612;2023-03-23T11:34:34;15.20;95.80
5723;DHT22;2886;49.722;8.612;2023-03-23T11:39:32;15.10;97.00
5723;DHT22;2886;49.722;8.612;2023-03-23T11:42:00;15.10;97.40
5723;DHT22;2886;49.722;8.612;2023-03-23T11:44:34;15.10;96.90
5723;DHT22;2886;49.722;8.612;2023-03-23T11:49:35;15.20;96.50
5723;DHT22;2886;49.722;8.612;2023-03-23T11:52:12;15.30;96.50
5723;DHT22;2886;49.722;8.612;2023-03-23T11:54:50;15.30;96.30
5723;DHT22;2886;49.722;8.612;2023-03-23T11:57:17;15.30;96.60
5723;DHT22;2886;49.722;8.612;2023-03-23T11:59:43;15.20;96.30
5723;DHT22;2886;49.722;8.612;2023-03-23T12:07:54;15.10;97.00
5723;DHT22;2886;49.722;8.612;2023-03-23T12:20:57;14.90;98.40
5723;DHT22;2886;49.722;8.612;2023-03-23T12:23:42;14.90;98.60
5723;DHT22;2886;49.722;8.612;2023-03-23T12:26:39;15.00;98.40
5723;DHT22;2886;49.722;8.612;2023-03-23T12:29:24;15.10;97.90
5723;DHT22;2886;49.722;8.612;2023-03-23T12:43:20;16.50;93.10
5723;DHT22;2886;49.722;8.612;2023-03-23T12:48:28;16.50;92.80
5723;DHT22;2886;49.722;8.612;2023-03-23T12:53:30;16.30;92.70
5723;DHT22;2886;49.722;8.612;2023-03-23T12:59:15;16.30;93.10
5723;DHT22;2886;49.722;8.612;2023-03-23T13:02:05;16.20;92.20
5723;DHT22;2886;49.722;8.612;2023-03-23T13:04:37;16.10;92.00
5723;DHT22;2886;49.722;8.612;2023-03-23T13:07:08;16.00;92.10
5723;DHT22;2886;49.722;8.612;2023-03-23T13:09:43;16.10;92.30
5723;DHT22;2886;49.722;8.612;2023-03-23T13:12:13;16.00;92.60
5723;DHT22;2886;49.722;8.612;2023-03-23T13:15:03;15.90;92.40
5723;DHT22;2886;49.722;8.612;2023-03-23T13:17:52;15.80;92.30
5723;DHT22;2886;49.722;8.612;2023-03-23T13:20:43;15.80;92.30
5723;DHT22;2886;49.722;8.612;2023-03-23T13:23:46;15.70;92.40
5723;DHT22;2886;49.722;8.612;2023-03-23T13:26:22;15.70;92.60
5723;DHT22;2886;49.722;8.612;2023-03-23T13:28:58;15.70;92.40
5723;DHT22;2886;49.722;8.612;2023-03-23T13:38:59;15.60;92.80
5723;DHT22;2886;49.722;8.612;2023-03-23T13:41:25;15.70;92.60
5723;DHT22;2886;49.722;8.612;2023-03-23T13:44:05;15.60;92.60
5723;DHT22;2886;49.722;8.612;2023-03-23T13:46:31;15.70;92.80
5723;DHT22;2886;49.722;8.612;2023-03-23T13:49:26;15.80;93.10
5723;DHT22;2886;49.722;8.612;2023-03-23T13:52:00;15.80;93.30
5723;DHT22;2886;49.722;8.612;2023-03-23T13:54:41;16.00;93.30
5723;DHT22;2886;49.722;8.612;2023-03-23T13:57:48;15.90;93.00
5723;DHT22;2886;49.722;8.612;2023-03-23T14:03:26;15.90;92.80
5723;DHT22;2886;49.722;8.612;2023-03-23T14:10:58;16.10;92.20
5723;DHT22;2886;49.722;8.612;2023-03-23T14:13:46;16.10;92.10
5723;DHT22;2886;49.722;8.612;2023-03-23T14:16:22;16.00;92.10
5723;DHT22;2886;49.722;8.612;2023-03-23T14:18:59;15.90;92.60
5723;DHT22;2886;49.722;8.612;2023-03-23T14:21:35;15.80;92.70
5723;DHT22;2886;49.722;8.612;2023-03-23T14:24:03;15.80;92.90
5723;DHT22;2886;49.722;8.612;2023-03-23T14:26:33;15.90;92.90
5723;DHT22;2886;49.722;8.612;2023-03-23T14:28:59;16.00;92.50
5723;DHT22;2886;49.722;8.612;2023-03-23T14:31:27;16.00;91.90
5723;DHT22;2886;49.722;8.612;2023-03-23T14:33:55;16.10;91.90
5723;DHT22;2886;49.722;8.612;2023-03-23T14:36:29;16.20;91.70
5723;DHT22;2886;49.722;8.612;2023-03-23T14:39:19;16.30;91.20
5723;DHT22;2886;49.722;8.612;2023-03-23T14:41:45;16.40;91.10
5723;DHT22;2886;49.722;8.612;2023-03-23T14:44:16;16.40;91.10
5723;DHT22;2886;49.722;8.612;2023-03-23T14:46:44;16.40;90.50
5723;DHT22;2886;49.722;8.612;2023-03-23T14:49:14;16.30;90.50
5723;DHT22;2886;49.722;8.612;2023-03-23T14:51:53;16.30;90.90
5723;DHT22;2886;49.722;8.612;2023-03-23T14:54:27;16.30;91.20
5723;DHT22;2886;49.722;8.612;2023-03-23T14:56:55;16.40;91.10
5723;DHT22;2886;49.722;8.612;2023-03-23T14:59:21;16.40;91.00
5723;DHT22;2886;49.722;8.612;2023-03-23T15:01:50;16.30;90.80
5723;DHT22;2886;49.722;8.612;2023-03-23T15:04:19;16.30;90.40
5723;DHT22;2886;49.722;8.612;2023-03-23T15:06:59;16.40;90.80
5723;DHT22;2886;49.722;8.612;2023-03-23T15:09:26;16.50;91.40
5723;DHT22;2886;49.722;8.612;2023-03-23T15:12:00;16.50;92.00
5723;DHT22;2886;49.722;8.612;2023-03-23T15:14:45;16.60;90.80
5723;DHT22;2886;49.722;8.612;2023-03-23T15:17:28;16.50;90.60
5723;DHT22;2886;49.722;8.612;2023-03-23T15:19:55;16.60;90.50
5723;DHT22;2886;49.722;8.612;2023-03-23T15:22:25;16.60;90.00
5723;DHT22;2886;49.722;8.612;2023-03-23T15:24:53;16.50;90.20
5723;DHT22;2886;49.722;8.612;2023-03-23T15:27:30;16.50;90.40
5723;DHT22;2886;49.722;8.612;2023-03-23T15:32:40;16.40;90.50
5723;DHT22;2886;49.722;8.612;2023-03-23T15:35:22;16.40;90.20
5723;DHT22;2886;49.722;8.612;2023-03-23T15:38:02;16.40;90.70
5723;DHT22;2886;49.722;8.612;2023-03-23T15:40:34;16.30;91.00
5723;DHT22;2886;49.722;8.612;2023-03-23T15:43:19;16.10;91.60
5723;DHT22;2886;49.722;8.612;2023-03-23T15:46:04;16.10;91.80
5723;DHT22;2886;49.722;8.612;2023-03-23T15:49:01;16.10;91.80
5723;DHT22;2886;49.722;8.612;2023-03-23T15:51:31;16.00;92.50
5723;DHT22;2886;49.722;8.612;2023-03-23T15:54:02;15.90;92.90
5723;DHT22;2886;49.722;8.612;2023-03-23T15:56:31;15.80;93.20
5723;DHT22;2886;49.722;8.612;2023-03-23T15:59:00;15.80;93.30
5723;DHT22;2886;49.722;8.612;2023-03-23T16:01:27;15.70;93.80
5723;DHT22;2886;49.722;8.612;2023-03-23T16:04:09;15.70;93.80
5723;DHT22;2886;49.722;8.612;2023-03-23T16:06:37;15.70;94.20
5723;DHT22;2886;49.722;8.612;2023-03-23T16:09:04;15.50;94.30
5723;DHT22;2886;49.722;8.612;2023-03-23T16:11:31;15.50;94.60
5723;DHT22;2886;49.722;8.612;2023-03-23T16:13:57;15.50;94.80
5723;DHT22;2886;49.722;8.612;2023-03-23T16:16:27;15.50;94.90
5723;DHT22;2886;49.722;8.612;2023-03-23T16:18:53;15.50;95.10
5723;DHT22;2886;49.722;8.612;2023-03-23T16:21:19;15.60;95.10
5723;DHT22;2886;49.722;8.612;2023-03-23T16:23:50;15.60;95.00
5723;DHT22;2886;49.722;8.612;2023-03-23T16:26:16;15.60;95.10
5723;DHT22;2886;49.722;8.612;2023-03-23T16:28:42;15.50;95.30
5723;DHT22;2886;49.722;8.612;2023-03-23T16:31:11;15.40;95.70
5723;DHT22;2886;49.722;8.612;2023-03-23T16:33:36;15.40;95.50
5723;DHT22;2886;49.722;8.612;2023-03-23T16:36:02;15.40;95.50
5723;DHT22;2886;49.722;8.612;2023-03-23T16:38:28;15.40;95.80
5723;DHT22;2886;49.722;8.612;2023-03-23T16:40:54;15.40;96.00
5723;DHT22;2886;49.722;8.612;2023-03-23T16:43:20;15.40;96.00
5723;DHT22;2886;49.722;8.612;2023-03-23T16:45:49;15.30;96.60
5723;DHT22;2886;49.722;8.612;2023-03-23T16:48:15;15.30;96.20
5723;DHT22;2886;49.722;8.612;2023-03-23T16:50:47;15.30;96.20
5723;DHT22;2886;49.722;8.612;2023-03-23T16:53:12;15.20;96.30
5723;DHT22;2886;49.722;8.612;2023-03-23T16:55:38;15.20;96.50
5723;DHT22;2886;49.722;8.612;2023-03-23T16:58:05;15.20;96.70
5723;DHT22;2886;49.722;8.612;2023-03-23T17:00:31;15.20;96.80
5723;DHT22;2886;49.722;8.612;2023-03-23T17:02:57;15.10;96.90
5723;DHT22;2886;49.722;8.612;2023-03-23T17:05:24;15.10;97.10
5723;DHT22;2886;49.722;8.612;2023-03-23T17:07:51;15.10;97.30
5723;DHT22;2886;49.722;8.612;2023-03-23T17:10:23;15.10;97.60
5723;DHT22;2886;49.722;8.612;2023-03-23T17:12:49;15.10;97.70
5723;DHT22;2886;49.722;8.612;2023-03-23T17:15:15;15.00;97.80
5723;DHT22;2886;49.722;8.612;2023-03-23T17:17:41;15.00;98.00
5723;DHT22;2886;49.722;8.612;2023-03-23T17:20:07;15.00;98.00
5723;DHT22;2886;49.722;8.612;2023-03-23T17:22:35;14.90;98.10
5723;DHT22;2886;49.722;8.612;2023-03-23T17:25:01;14.90;98.30
5723;DHT22;2886;49.722;8.612;2023-03-23T17:27:26;14.80;98.40
5723;DHT22;2886;49.722;8.612;2023-03-23T17:29:52;14.90;98.60
5723;DHT22;2886;49.722;8.612;2023-03-23T17:32:18;14.80;98.60
5723;DHT22;2886;49.722;8.612;2023-03-23T17:34:49;14.80;98.80
5723;DHT22;2886;49.722;8.612;2023-03-23T17:37:19;14.80;99.00
5723;DHT22;2886;49.722;8.612;2023-03-23T17:39:45;14.80;99.10
5723;DHT22;2886;49.722;8.612;2023-03-23T17:42:11;14.80;99.00
5723;DHT22;2886;49.722;8.612;2023-03-23T17:44:39;14.80;99.20
5723;DHT22;2886;49.722;8.612;2023-03-23T17:47:05;14.70;99.20
5723;DHT22;2886;49.722;8.612;2023-03-23T17:49:31;14.80;99.70
5723;DHT22;2886;49.722;8.612;2023-03-23T17:51:57;14.70;99.50